createdAt,value
2022-12-25T00:02:46.961Z,7.61
2022-12-25T00:13:14.649Z,7.03
2022-12-25T00:23:42.448Z,6.74
2022-12-25T00:34:10.135Z,6.95
2022-12-25T00:44:37.944Z,7.23
2022-12-25T00:55:06.654Z,7.46
2022-12-25T01:05:34.214Z,7.65
2022-12-25T01:16:06.099Z,7.39
2022-12-25T01:26:33.793Z,7.07
2022-12-25T01:37:01.388Z,7.34
2022-12-25T01:47:29.146Z,7.64
2022-12-25T01:57:57.316Z,7.80
2022-12-25T02:08:26.274Z,7.92
2022-12-25T02:18:59.677Z,7.91
2022-12-25T02:29:31.830Z,7.83
2022-12-25T02:40:06.236Z,7.99
2022-12-25T02:50:51.807Z,7.98
2022-12-25T03:01:39.356Z,7.97
2022-12-25T03:12:15.375Z,7.88
2022-12-25T03:23:03.743Z,7.76
2022-12-25T03:33:46.681Z,7.66
2022-12-25T03:44:36.556Z,7.68
2022-12-25T03:55:27.434Z,7.64
2022-12-25T04:06:12.102Z,7.67
2022-12-25T04:16:57.522Z,7.70
2022-12-25T04:27:43.237Z,7.70
2022-12-25T04:38:10.936Z,7.73
2022-12-25T04:48:39.089Z,7.67
2022-12-25T04:59:06.679Z,7.70
2022-12-25T05:09:34.291Z,7.67
2022-12-25T05:20:02.243Z,7.53
2022-12-25T05:30:29.815Z,7.58
2022-12-25T05:40:57.376Z,7.39
2022-12-25T05:51:26.126Z,6.84
2022-12-25T06:01:54.114Z,6.64
2022-12-25T06:12:21.770Z,6.36
2022-12-25T06:22:49.376Z,6.15
2022-12-25T06:33:17.160Z,6.08
2022-12-25T06:43:45.208Z,5.88
2022-12-25T06:54:12.773Z,5.69
2022-12-25T07:04:43.072Z,5.53
2022-12-25T07:15:12.357Z,5.35
2022-12-25T07:25:39.969Z,5.22
2022-12-25T07:36:12.516Z,5.09
2022-12-25T07:46:40.691Z,5.06
2022-12-25T07:57:09.014Z,5.01
2022-12-25T08:07:36.978Z,5.04
2022-12-25T08:18:04.619Z,5.04
2022-12-25T08:28:33.561Z,5.10
2022-12-25T08:39:03.395Z,5.16
2022-12-25T08:49:31.174Z,5.25
2022-12-25T08:59:59.103Z,5.31
2022-12-25T09:10:26.694Z,5.56
2022-12-25T09:21:01.823Z,5.86
2022-12-25T09:31:29.505Z,6.09
2022-12-25T09:42:01.094Z,6.57
2022-12-25T09:52:38.819Z,7.03
2022-12-25T10:03:20.384Z,7.39
2022-12-25T10:14:01.920Z,7.74
2022-12-25T10:24:37.965Z,7.64
2022-12-25T10:35:05.871Z,7.53
2022-12-25T10:45:43.276Z,7.57
2022-12-25T10:56:19.536Z,7.64
2022-12-25T11:06:56.783Z,7.70
2022-12-25T11:17:26.742Z,7.79
2022-12-25T11:28:02.311Z,7.94
2022-12-25T11:38:30.167Z,8.07
2022-12-25T11:49:01.924Z,8.18
2022-12-25T11:59:36.172Z,8.23
2022-12-25T12:10:15.116Z,8.31
2022-12-25T12:20:43.032Z,8.37
2022-12-25T12:31:11.208Z,8.39
2022-12-25T12:41:49.669Z,8.41
2022-12-25T12:52:27.431Z,8.41
2022-12-25T13:03:19.164Z,8.42
2022-12-25T13:13:48.555Z,8.41
2022-12-25T13:24:24.207Z,8.39
2022-12-25T13:34:53.303Z,8.35
2022-12-25T13:45:26.755Z,8.28
2022-12-25T13:55:57.560Z,8.28
2022-12-25T14:06:29.233Z,8.21
2022-12-25T14:17:00.387Z,8.18
2022-12-25T14:27:30.517Z,8.61
2022-12-25T14:38:01.132Z,8.79
2022-12-25T14:48:30.437Z,8.80
2022-12-25T14:59:00.262Z,8.96
2022-12-25T15:09:30.171Z,8.90
2022-12-25T15:20:02.290Z,8.64
2022-12-25T15:30:30.548Z,8.35
2022-12-25T15:40:58.117Z,7.99
2022-12-25T15:51:26.112Z,7.85
2022-12-25T16:01:56.324Z,7.59
2022-12-25T16:12:24.106Z,7.38
2022-12-25T16:22:51.830Z,7.13
2022-12-25T16:33:19.418Z,6.93
2022-12-25T16:43:47.257Z,6.95
2022-12-25T16:54:15.259Z,6.89
2022-12-25T17:04:42.863Z,6.79
2022-12-25T17:15:12.567Z,6.70
2022-12-25T17:25:41.140Z,6.47
2022-12-25T17:36:12.282Z,6.38
2022-12-25T17:46:40.219Z,6.32
2022-12-25T17:57:07.963Z,6.28
2022-12-25T18:07:35.582Z,6.18
2022-12-25T18:18:03.215Z,6.15
2022-12-25T18:28:30.869Z,6.13
2022-12-25T18:38:59.215Z,6.11
2022-12-25T18:49:26.918Z,6.21
2022-12-25T18:59:54.809Z,6.09
2022-12-25T19:10:22.420Z,5.95
2022-12-25T19:20:49.916Z,6.06
2022-12-25T19:31:17.768Z,6.29
2022-12-25T19:41:45.548Z,6.37
2022-12-25T19:52:13.924Z,6.43
2022-12-25T20:02:41.492Z,6.49
2022-12-25T20:13:09.987Z,6.59
2022-12-25T20:23:37.587Z,6.71
2022-12-25T20:34:09.017Z,6.57
2022-12-25T20:44:36.688Z,6.77
2022-12-25T20:55:04.702Z,6.91
2022-12-25T21:05:32.689Z,6.95
2022-12-25T21:16:01.188Z,6.92
2022-12-25T21:26:28.155Z,7.03
2022-12-25T21:36:55.768Z,6.93
2022-12-25T21:47:23.408Z,7.12
2022-12-25T21:57:50.824Z,7.23
2022-12-25T22:08:18.675Z,7.25
2022-12-25T22:19:03.729Z,7.14
2022-12-25T22:29:31.503Z,7.25
2022-12-25T22:40:01.328Z,7.07
2022-12-25T22:50:29.227Z,6.89
2022-12-25T23:00:56.843Z,6.90
2022-12-25T23:11:24.603Z,6.92
2022-12-25T23:22:24.507Z,6.93
2022-12-25T23:32:52.161Z,6.76
2022-12-25T23:43:19.725Z,6.82
2022-12-25T23:53:47.926Z,6.79
